Terminal Aerodrome Forecast
Issued by NWS Memphis, TN

Home | Current Version | Previous Version | Text Only | Print | Product List | Glossary On
Versions: 1 2 3 4 5 6 7 8 9 10 11 12 13 14 15 16 17 18 19 20
000
FTUS44 KMEG 281130
TAFJBR
TAF
KJBR 281130Z 2812/2912 20010KT P6SM SKC
     FM281600 20014G22KT P6SM SKC
     FM290000 19010G16KT P6SM SCT250 WS020/23045KT
     FM291000 20012G18KT P6SM SCT009 BKN250=

USA.gov is the U.S. government's official web portal to all federal, state and local government web resources and services.